Liggett, Indiana
Current Conditions -  °F | °C
As of 7:53 PM on Thursday 18 Dec 2014 (Local Time) from KHUF Reporting Station
Overcast Overcast  
Wind Chill: 24°   Ceiling: 11000
Heat Index: 29°   Visibility: 10mi
Dew Point: 22°   Wind: 5mph
Humidity: 75%   Direction: 350°N
Pressure: 30.26"   Gusts: NA
Location:  39.5107°N, 87.4772°W
Report Text: KHUF 190053Z 35004KT 10SM FEW050 OVC110 M02/M06 A3026 RMK AO2 SLP254 T10171056
Loading
Personal Weather Stations






























Interactive Weather Map New forecast layout! Learn more

10-Day Weather Forecast

Advertisements
Track Severe Weather on mobile